sensor_id;sensor_type;location;lat;lon;timestamp;temperature;humidity
64833;HTU21D;51290;45.060;38.948;2023-04-02T00:00:35;5.63;54.31
64833;HTU21D;51290;45.060;38.948;2023-04-02T00:03:03;5.55;54.34
64833;HTU21D;51290;45.060;38.948;2023-04-02T00:08:03;5.46;54.43
64833;HTU21D;51290;45.060;38.948;2023-04-02T00:10:45;5.40;54.48
64833;HTU21D;51290;45.060;38.948;2023-04-02T00:15:40;5.34;54.60
64833;HTU21D;51290;45.060;38.948;2023-04-02T00:18:12;5.28;54.63
64833;HTU21D;51290;45.060;38.948;2023-04-02T00:20:41;5.24;54.68
64833;HTU21D;51290;45.060;38.948;2023-04-02T00:23:12;5.22;54.75
64833;HTU21D;51290;45.060;38.948;2023-04-02T00:25:40;5.18;54.84
64833;HTU21D;51290;45.060;38.948;2023-04-02T00:28:14;5.18;54.86
64833;HTU21D;51290;45.060;38.948;2023-04-02T00:30:52;5.17;54.90
64833;HTU21D;51290;45.060;38.948;2023-04-02T00:33:21;5.15;54.97
64833;HTU21D;51290;45.060;38.948;2023-04-02T00:35:49;5.15;55.05
64833;HTU21D;51290;45.060;38.948;2023-04-02T00:38:28;5.17;55.25
64833;HTU21D;51290;45.060;38.948;2023-04-02T00:40:58;5.23;55.43
64833;HTU21D;51290;45.060;38.948;2023-04-02T00:43:27;5.34;55.49
64833;HTU21D;51290;45.060;38.948;2023-04-02T00:45:56;5.41;55.41
64833;HTU21D;51290;45.060;38.948;2023-04-02T00:48:27;5.47;55.36
64833;HTU21D;51290;45.060;38.948;2023-04-02T00:51:09;5.53;55.27
64833;HTU21D;51290;45.060;38.948;2023-04-02T00:53:37;5.54;55.25
64833;HTU21D;51290;45.060;38.948;2023-04-02T00:56:12;5.56;55.31
64833;HTU21D;51290;45.060;38.948;2023-04-02T00:58:39;5.61;55.39
64833;HTU21D;51290;45.060;38.948;2023-04-02T01:01:16;5.68;55.42
64833;HTU21D;51290;45.060;38.948;2023-04-02T01:03:53;5.75;55.37
64833;HTU21D;51290;45.060;38.948;2023-04-02T01:06:25;5.80;55.36
64833;HTU21D;51290;45.060;38.948;2023-04-02T01:17:31;6.04;55.33
64833;HTU21D;51290;45.060;38.948;2023-04-02T01:23:02;6.10;55.44
64833;HTU21D;51290;45.060;38.948;2023-04-02T01:31:09;6.15;55.62
64833;HTU21D;51290;45.060;38.948;2023-04-02T01:33:35;6.17;55.78
64833;HTU21D;51290;45.060;38.948;2023-04-02T01:41:48;6.22;56.07
64833;HTU21D;51290;45.060;38.948;2023-04-02T01:44:41;6.23;56.23
64833;HTU21D;51290;45.060;38.948;2023-04-02T01:47:14;6.22;56.25
64833;HTU21D;51290;45.060;38.948;2023-04-02T01:49:42;6.22;56.29
64833;HTU21D;51290;45.060;38.948;2023-04-02T01:52:15;6.20;56.36
64833;HTU21D;51290;45.060;38.948;2023-04-02T01:54:44;6.19;56.43
64833;HTU21D;51290;45.060;38.948;2023-04-02T01:57:11;6.19;56.52
64833;HTU21D;51290;45.060;38.948;2023-04-02T01:59:37;6.19;56.61
64833;HTU21D;51290;45.060;38.948;2023-04-02T02:02:10;6.17;56.69
64833;HTU21D;51290;45.060;38.948;2023-04-02T02:04:39;6.15;56.76
64833;HTU21D;51290;45.060;38.948;2023-04-02T02:07:15;6.14;56.93
64833;HTU21D;51290;45.060;38.948;2023-04-02T02:09:46;6.13;57.06
64833;HTU21D;51290;45.060;38.948;2023-04-02T02:12:14;6.12;57.19
64833;HTU21D;51290;45.060;38.948;2023-04-02T02:14:50;6.10;57.39
64833;HTU21D;51290;45.060;38.948;2023-04-02T02:17:31;6.09;57.45
64833;HTU21D;51290;45.060;38.948;2023-04-02T02:19:59;6.08;57.56
64833;HTU21D;51290;45.060;38.948;2023-04-02T02:22:29;6.05;57.77
64833;HTU21D;51290;45.060;38.948;2023-04-02T02:24:58;6.05;57.84
64833;HTU21D;51290;45.060;38.948;2023-04-02T02:30:13;5.97;57.96
64833;HTU21D;51290;45.060;38.948;2023-04-02T02:38:39;5.81;58.28
64833;HTU21D;51290;45.060;38.948;2023-04-02T02:41:45;5.76;58.48
64833;HTU21D;51290;45.060;38.948;2023-04-02T02:44:23;5.70;58.58
64833;HTU21D;51290;45.060;38.948;2023-04-02T02:46:51;5.66;58.64
64833;HTU21D;51290;45.060;38.948;2023-04-02T02:49:41;5.63;58.75
64833;HTU21D;51290;45.060;38.948;2023-04-02T02:54:54;5.55;58.77
64833;HTU21D;51290;45.060;38.948;2023-04-02T02:57:27;5.51;58.78
64833;HTU21D;51290;45.060;38.948;2023-04-02T02:59:57;5.48;58.85
64833;HTU21D;51290;45.060;38.948;2023-04-02T03:02:25;5.47;58.97
64833;HTU21D;51290;45.060;38.948;2023-04-02T03:04:53;5.42;59.03
64833;HTU21D;51290;45.060;38.948;2023-04-02T03:07:24;5.42;59.00
64833;HTU21D;51290;45.060;38.948;2023-04-02T03:18:11;5.41;59.32
64833;HTU21D;51290;45.060;38.948;2023-04-02T03:20:57;5.45;59.42
64833;HTU21D;51290;45.060;38.948;2023-04-02T03:23:50;5.50;59.51
64833;HTU21D;51290;45.060;38.948;2023-04-02T03:31:40;5.56;59.42
64833;HTU21D;51290;45.060;38.948;2023-04-02T03:34:12;5.62;59.52
64833;HTU21D;51290;45.060;38.948;2023-04-02T03:36:57;5.66;59.60
64833;HTU21D;51290;45.060;38.948;2023-04-02T03:39:32;5.71;59.59
64833;HTU21D;51290;45.060;38.948;2023-04-02T03:42:08;5.78;59.65
64833;HTU21D;51290;45.060;38.948;2023-04-02T03:44:44;5.84;59.70
64833;HTU21D;51290;45.060;38.948;2023-04-02T03:52:42;6.10;59.84
64833;HTU21D;51290;45.060;38.948;2023-04-02T03:55:19;6.21;59.88
64833;HTU21D;51290;45.060;38.948;2023-04-02T04:06:19;6.67;59.83
64833;HTU21D;51290;45.060;38.948;2023-04-02T04:08:52;6.79;59.82
64833;HTU21D;51290;45.060;38.948;2023-04-02T04:11:25;6.88;59.88
64833;HTU21D;51290;45.060;38.948;2023-04-02T04:17:19;7.13;60.09
64833;HTU21D;51290;45.060;38.948;2023-04-02T04:22:32;7.35;60.18
64833;HTU21D;51290;45.060;38.948;2023-04-02T04:25:20;7.48;60.16
64833;HTU21D;51290;45.060;38.948;2023-04-02T04:30:50;7.75;60.30
64833;HTU21D;51290;45.060;38.948;2023-04-02T04:33:23;7.88;60.22
64833;HTU21D;51290;45.060;38.948;2023-04-02T04:35:58;8.01;60.18
64833;HTU21D;51290;45.060;38.948;2023-04-02T04:38:31;8.16;60.11
64833;HTU21D;51290;45.060;38.948;2023-04-02T04:41:12;8.31;60.06
64833;HTU21D;51290;45.060;38.948;2023-04-02T04:43:46;8.46;59.95
64833;HTU21D;51290;45.060;38.948;2023-04-02T04:46:40;8.62;59.82
64833;HTU21D;51290;45.060;38.948;2023-04-02T04:49:44;8.75;59.61
64833;HTU21D;51290;45.060;38.948;2023-04-02T04:52:37;8.88;59.41
64833;HTU21D;51290;45.060;38.948;2023-04-02T04:57:50;9.05;59.14
64833;HTU21D;51290;45.060;38.948;2023-04-02T05:00:26;9.16;59.13
64833;HTU21D;51290;45.060;38.948;2023-04-02T05:03:05;9.29;59.06
64833;HTU21D;51290;45.060;38.948;2023-04-02T05:05:37;9.42;58.99
64833;HTU21D;51290;45.060;38.948;2023-04-02T05:08:23;9.57;58.87
64833;HTU21D;51290;45.060;38.948;2023-04-02T05:11:15;9.71;58.57
64833;HTU21D;51290;45.060;38.948;2023-04-02T05:14:14;9.82;58.26
64833;HTU21D;51290;45.060;38.948;2023-04-02T05:16:55;9.90;58.00
64833;HTU21D;51290;45.060;38.948;2023-04-02T05:19:31;9.94;57.81
64833;HTU21D;51290;45.060;38.948;2023-04-02T05:27:19;10.11;57.81
64833;HTU21D;51290;45.060;38.948;2023-04-02T05:29:52;10.21;57.84
64833;HTU21D;51290;45.060;38.948;2023-04-02T05:32:34;10.34;57.77
64833;HTU21D;51290;45.060;38.948;2023-04-02T05:35:17;10.46;57.64
64833;HTU21D;51290;45.060;38.948;2023-04-02T05:37:47;10.57;57.50
64833;HTU21D;51290;45.060;38.948;2023-04-02T05:40:30;10.69;57.42
64833;HTU21D;51290;45.060;38.948;2023-04-02T05:43:00;10.82;57.32
64833;HTU21D;51290;45.060;38.948;2023-04-02T05:45:36;10.89;57.02
64833;HTU21D;51290;45.060;38.948;2023-04-02T05:48:36;10.92;56.63
64833;HTU21D;51290;45.060;38.948;2023-04-02T05:51:08;10.92;56.55
64833;HTU21D;51290;45.060;38.948;2023-04-02T05:53:43;10.94;56.47
64833;HTU21D;51290;45.060;38.948;2023-04-02T06:07:07;11.10;55.99
64833;HTU21D;51290;45.060;38.948;2023-04-02T06:10:06;11.15;55.78
64833;HTU21D;51290;45.060;38.948;2023-04-02T06:12:37;11.20;55.65
64833;HTU21D;51290;45.060;38.948;2023-04-02T06:15:12;11.28;55.69
64833;HTU21D;51290;45.060;38.948;2023-04-02T06:17:57;11.37;55.41
64833;HTU21D;51290;45.060;38.948;2023-04-02T06:20:25;11.43;55.19
64833;HTU21D;51290;45.060;38.948;2023-04-02T06:23:18;11.51;54.81
64833;HTU21D;51290;45.060;38.948;2023-04-02T06:28:56;11.63;54.74
64833;HTU21D;51290;45.060;38.948;2023-04-02T06:31:44;11.76;54.53
64833;HTU21D;51290;45.060;38.948;2023-04-02T06:34:16;11.87;54.52
64833;HTU21D;51290;45.060;38.948;2023-04-02T06:36:50;12.01;54.39
64833;HTU21D;51290;45.060;38.948;2023-04-02T06:39:20;12.10;53.76
64833;HTU21D;51290;45.060;38.948;2023-04-02T06:42:05;12.16;53.59
64833;HTU21D;51290;45.060;38.948;2023-04-02T06:44:55;12.22;53.57
64833;HTU21D;51290;45.060;38.948;2023-04-02T06:47:43;12.30;53.43
64833;HTU21D;51290;45.060;38.948;2023-04-02T06:50:24;12.34;53.36
64833;HTU21D;51290;45.060;38.948;2023-04-02T06:52:54;12.35;53.17
64833;HTU21D;51290;45.060;38.948;2023-04-02T06:57:50;12.38;52.90
64833;HTU21D;51290;45.060;38.948;2023-04-02T07:00:33;12.41;52.25
64833;HTU21D;51290;45.060;38.948;2023-04-02T07:03:05;12.47;52.17
64833;HTU21D;51290;45.060;38.948;2023-04-02T07:05:31;12.52;51.98
64833;HTU21D;51290;45.060;38.948;2023-04-02T07:07:57;12.60;52.14
64833;HTU21D;51290;45.060;38.948;2023-04-02T07:10:24;12.71;52.15
64833;HTU21D;51290;45.060;38.948;2023-04-02T07:12:50;12.80;51.82
64833;HTU21D;51290;45.060;38.948;2023-04-02T07:15:19;12.87;51.40
64833;HTU21D;51290;45.060;38.948;2023-04-02T07:17:48;12.94;51.09
64833;HTU21D;51290;45.060;38.948;2023-04-02T07:20:34;13.02;50.57
64833;HTU21D;51290;45.060;38.948;2023-04-02T07:23:07;13.09;50.42
64833;HTU21D;51290;45.060;38.948;2023-04-02T07:25:33;13.16;50.12
64833;HTU21D;51290;45.060;38.948;2023-04-02T07:27:59;13.16;50.18
64833;HTU21D;51290;45.060;38.948;2023-04-02T07:30:26;13.21;50.31
64833;HTU21D;51290;45.060;38.948;2023-04-02T07:32:52;13.25;50.08
64833;HTU21D;51290;45.060;38.948;2023-04-02T07:35:18;13.30;49.65
64833;HTU21D;51290;45.060;38.948;2023-04-02T07:37:44;13.35;49.57
64833;HTU21D;51290;45.060;38.948;2023-04-02T07:40:16;13.44;49.63
64833;HTU21D;51290;45.060;38.948;2023-04-02T07:42:43;13.54;49.24
64833;HTU21D;51290;45.060;38.948;2023-04-02T07:45:10;13.64;48.70
64833;HTU21D;51290;45.060;38.948;2023-04-02T07:47:37;13.71;48.31
64833;HTU21D;51290;45.060;38.948;2023-04-02T07:50:03;13.79;47.98
64833;HTU21D;51290;45.060;38.948;2023-04-02T07:52:29;13.86;48.05
64833;HTU21D;51290;45.060;38.948;2023-04-02T07:54:56;13.94;48.18
64833;HTU21D;51290;45.060;38.948;2023-04-02T07:57:23;14.05;47.38
64833;HTU21D;51290;45.060;38.948;2023-04-02T07:59:49;14.13;47.63
64833;HTU21D;51290;45.060;38.948;2023-04-02T08:02:19;14.20;47.84
64833;HTU21D;51290;45.060;38.948;2023-04-02T08:04:47;14.28;48.02
64833;HTU21D;51290;45.060;38.948;2023-04-02T08:07:13;14.39;48.22
64833;HTU21D;51290;45.060;38.948;2023-04-02T08:09:39;14.53;47.79
64833;HTU21D;51290;45.060;38.948;2023-04-02T08:12:05;14.63;47.32
64833;HTU21D;51290;45.060;38.948;2023-04-02T08:14:31;14.70;47.47
64833;HTU21D;51290;45.060;38.948;2023-04-02T08:16:57;14.79;47.53
64833;HTU21D;51290;45.060;38.948;2023-04-02T08:19:23;14.86;47.20
64833;HTU21D;51290;45.060;38.948;2023-04-02T08:21:49;14.91;46.52
64833;HTU21D;51290;45.060;38.948;2023-04-02T08:24:17;14.93;46.51
64833;HTU21D;51290;45.060;38.948;2023-04-02T08:26:47;14.99;46.44
64833;HTU21D;51290;45.060;38.948;2023-04-02T08:29:14;15.04;46.35
64833;HTU21D;51290;45.060;38.948;2023-04-02T08:31:40;15.09;46.33
64833;HTU21D;51290;45.060;38.948;2023-04-02T08:34:06;15.15;46.30
64833;HTU21D;51290;45.060;38.948;2023-04-02T08:36:38;15.24;45.65
64833;HTU21D;51290;45.060;38.948;2023-04-02T08:39:05;15.28;45.19
64833;HTU21D;51290;45.060;38.948;2023-04-02T08:41:41;15.29;44.38
64833;HTU21D;51290;45.060;38.948;2023-04-02T08:47:03;15.29;43.79
64833;HTU21D;51290;45.060;38.948;2023-04-02T08:50:13;15.28;44.01
64833;HTU21D;51290;45.060;38.948;2023-04-02T08:52:38;15.32;43.92
64833;HTU21D;51290;45.060;38.948;2023-04-02T08:55:20;15.40;43.44
64833;HTU21D;51290;45.060;38.948;2023-04-02T09:00:51;15.54;43.61
64833;HTU21D;51290;45.060;38.948;2023-04-02T09:03:40;15.61;43.39
64833;HTU21D;51290;45.060;38.948;2023-04-02T09:06:11;15.69;43.22
64833;HTU21D;51290;45.060;38.948;2023-04-02T09:08:38;15.76;43.17
64833;HTU21D;51290;45.060;38.948;2023-04-02T09:13:49;15.88;43.16
64833;HTU21D;51290;45.060;38.948;2023-04-02T09:16:18;15.95;43.16
64833;HTU21D;51290;45.060;38.948;2023-04-02T09:18:49;15.99;43.29
64833;HTU21D;51290;45.060;38.948;2023-04-02T09:23:47;16.12;42.91
64833;HTU21D;51290;45.060;38.948;2023-04-02T09:26:25;16.15;43.16
64833;HTU21D;51290;45.060;38.948;2023-04-02T09:28:58;16.20;43.19
64833;HTU21D;51290;45.060;38.948;2023-04-02T09:31:34;16.26;43.42
64833;HTU21D;51290;45.060;38.948;2023-04-02T09:34:33;16.34;43.64
64833;HTU21D;51290;45.060;38.948;2023-04-02T09:37:11;16.43;43.05
64833;HTU21D;51290;45.060;38.948;2023-04-02T09:39:41;16.48;42.62
64833;HTU21D;51290;45.060;38.948;2023-04-02T09:42:30;16.48;42.54
64833;HTU21D;51290;45.060;38.948;2023-04-02T09:45:22;16.48;42.48
64833;HTU21D;51290;45.060;38.948;2023-04-02T09:47:50;16.48;42.59
64833;HTU21D;51290;45.060;38.948;2023-04-02T09:52:47;16.52;42.08
64833;HTU21D;51290;45.060;38.948;2023-04-02T09:57:40;16.47;41.26
64833;HTU21D;51290;45.060;38.948;2023-04-02T10:03:03;16.35;41.05
64833;HTU21D;51290;45.060;38.948;2023-04-02T10:05:31;16.32;41.13
64833;HTU21D;51290;45.060;38.948;2023-04-02T10:08:14;16.34;41.02
64833;HTU21D;51290;45.060;38.948;2023-04-02T10:10:48;16.42;41.19
64833;HTU21D;51290;45.060;38.948;2023-04-02T10:18:47;17.03;41.63
64833;HTU21D;51290;45.060;38.948;2023-04-02T10:21:49;17.34;41.10
64833;HTU21D;51290;45.060;38.948;2023-04-02T10:24:17;17.59;40.87
64833;HTU21D;51290;45.060;38.948;2023-04-02T10:35:11;18.34;39.58
64833;HTU21D;51290;45.060;38.948;2023-04-02T10:43:13;18.74;38.98
64833;HTU21D;51290;45.060;38.948;2023-04-02T10:48:35;18.68;37.52
64833;HTU21D;51290;45.060;38.948;2023-04-02T10:53:54;18.74;37.76
64833;HTU21D;51290;45.060;38.948;2023-04-02T10:56:23;18.79;38.00
64833;HTU21D;51290;45.060;38.948;2023-04-02T10:59:01;18.91;37.99
64833;HTU21D;51290;45.060;38.948;2023-04-02T11:01:30;18.95;37.99
64833;HTU21D;51290;45.060;38.948;2023-04-02T11:04:15;18.96;37.89
64833;HTU21D;51290;45.060;38.948;2023-04-02T11:06:47;18.88;37.39
64833;HTU21D;51290;45.060;38.948;2023-04-02T11:09:23;18.73;37.46
64833;HTU21D;51290;45.060;38.948;2023-04-02T11:11:54;18.63;37.91
64833;HTU21D;51290;45.060;38.948;2023-04-02T11:16:49;18.56;38.23
64833;HTU21D;51290;45.060;38.948;2023-04-02T11:21:50;18.67;38.22
64833;HTU21D;51290;45.060;38.948;2023-04-02T11:24:31;18.70;38.69
64833;HTU21D;51290;45.060;38.948;2023-04-02T11:42:49;19.18;38.36
64833;HTU21D;51290;45.060;38.948;2023-04-02T11:50:41;19.79;38.30
64833;HTU21D;51290;45.060;38.948;2023-04-02T11:55:42;19.91;37.69
64833;HTU21D;51290;45.060;38.948;2023-04-02T12:04:10;20.00;38.04
64833;HTU21D;51290;45.060;38.948;2023-04-02T12:09:21;20.16;38.17
64833;HTU21D;51290;45.060;38.948;2023-04-02T12:11:53;20.18;37.75
64833;HTU21D;51290;45.060;38.948;2023-04-02T12:16:59;20.22;37.88
64833;HTU21D;51290;45.060;38.948;2023-04-02T12:19:27;20.34;37.97
64833;HTU21D;51290;45.060;38.948;2023-04-02T12:21:56;20.46;37.86
64833;HTU21D;51290;45.060;38.948;2023-04-02T12:24:26;20.54;37.77
64833;HTU21D;51290;45.060;38.948;2023-04-02T12:27:18;20.47;37.66
64833;HTU21D;51290;45.060;38.948;2023-04-02T12:29:49;20.30;37.56
64833;HTU21D;51290;45.060;38.948;2023-04-02T12:32:23;20.11;37.73
64833;HTU21D;51290;45.060;38.948;2023-04-02T12:34:51;19.94;37.98
64833;HTU21D;51290;45.060;38.948;2023-04-02T12:37:26;19.83;37.94
64833;HTU21D;51290;45.060;38.948;2023-04-02T12:40:14;19.68;37.98
64833;HTU21D;51290;45.060;38.948;2023-04-02T12:42:41;19.54;38.17
64833;HTU21D;51290;45.060;38.948;2023-04-02T12:45:27;19.42;38.27
64833;HTU21D;51290;45.060;38.948;2023-04-02T12:47:56;19.36;38.36
64833;HTU21D;51290;45.060;38.948;2023-04-02T12:50:22;19.36;38.46
64833;HTU21D;51290;45.060;38.948;2023-04-02T12:52:50;19.41;38.46
64833;HTU21D;51290;45.060;38.948;2023-04-02T12:55:25;19.46;38.46
64833;HTU21D;51290;45.060;38.948;2023-04-02T12:57:55;19.44;38.30
64833;HTU21D;51290;45.060;38.948;2023-04-02T13:03:21;19.23;38.28
64833;HTU21D;51290;45.060;38.948;2023-04-02T13:05:55;19.10;38.46
64833;HTU21D;51290;45.060;38.948;2023-04-02T13:11:03;18.93;38.66
64833;HTU21D;51290;45.060;38.948;2023-04-02T13:13:35;18.89;38.86
64833;HTU21D;51290;45.060;38.948;2023-04-02T13:16:26;18.94;39.08
64833;HTU21D;51290;45.060;38.948;2023-04-02T13:19:08;19.06;39.04
64833;HTU21D;51290;45.060;38.948;2023-04-02T13:21:35;19.16;38.95
64833;HTU21D;51290;45.060;38.948;2023-04-02T13:24:01;19.23;38.75
64833;HTU21D;51290;45.060;38.948;2023-04-02T13:26:28;19.25;38.63
64833;HTU21D;51290;45.060;38.948;2023-04-02T13:28:59;19.22;38.57
64833;HTU21D;51290;45.060;38.948;2023-04-02T13:31:27;19.20;38.58
64833;HTU21D;51290;45.060;38.948;2023-04-02T13:33:53;19.17;38.67
64833;HTU21D;51290;45.060;38.948;2023-04-02T13:36:19;19.15;38.69
64833;HTU21D;51290;45.060;38.948;2023-04-02T13:38:46;19.14;38.72
64833;HTU21D;51290;45.060;38.948;2023-04-02T13:41:34;19.16;38.82
64833;HTU21D;51290;45.060;38.948;2023-04-02T13:44:02;19.15;38.68
64833;HTU21D;51290;45.060;38.948;2023-04-02T13:46:31;19.13;38.64
64833;HTU21D;51290;45.060;38.948;2023-04-02T13:48:58;19.13;38.68
64833;HTU21D;51290;45.060;38.948;2023-04-02T13:51:36;19.13;38.74
64833;HTU21D;51290;45.060;38.948;2023-04-02T13:54:07;19.15;38.75
64833;HTU21D;51290;45.060;38.948;2023-04-02T13:56:33;19.10;38.59
64833;HTU21D;51290;45.060;38.948;2023-04-02T13:59:00;19.03;38.59
64833;HTU21D;51290;45.060;38.948;2023-04-02T14:01:26;18.93;38.61
64833;HTU21D;51290;45.060;38.948;2023-04-02T14:03:53;18.84;38.50
64833;HTU21D;51290;45.060;38.948;2023-04-02T14:15:18;18.39;38.82
64833;HTU21D;51290;45.060;38.948;2023-04-02T14:23:27;18.23;38.98
64833;HTU21D;51290;45.060;38.948;2023-04-02T14:26:02;18.19;39.00
64833;HTU21D;51290;45.060;38.948;2023-04-02T14:31:46;18.11;39.10
64833;HTU21D;51290;45.060;38.948;2023-04-02T14:42:56;18.15;39.20
64833;HTU21D;51290;45.060;38.948;2023-04-02T14:45:47;18.12;39.15
64833;HTU21D;51290;45.060;38.948;2023-04-02T14:51:29;18.04;39.12
64833;HTU21D;51290;45.060;38.948;2023-04-02T14:56:24;17.92;39.17
64833;HTU21D;51290;45.060;38.948;2023-04-02T14:59:16;17.87;39.21
64833;HTU21D;51290;45.060;38.948;2023-04-02T15:01:49;17.80;39.33
64833;HTU21D;51290;45.060;38.948;2023-04-02T15:04:32;17.75;39.33
64833;HTU21D;51290;45.060;38.948;2023-04-02T15:07:08;17.70;39.20
64833;HTU21D;51290;45.060;38.948;2023-04-02T15:09:46;17.66;39.14
64833;HTU21D;51290;45.060;38.948;2023-04-02T15:12:22;17.64;39.00
64833;HTU21D;51290;45.060;38.948;2023-04-02T15:15:04;17.62;38.83
64833;HTU21D;51290;45.060;38.948;2023-04-02T15:17:33;17.60;38.86
64833;HTU21D;51290;45.060;38.948;2023-04-02T15:20:12;17.56;38.92
64833;HTU21D;51290;45.060;38.948;2023-04-02T15:25:35;17.46;38.69
64833;HTU21D;51290;45.060;38.948;2023-04-02T15:28:29;17.39;38.68
64833;HTU21D;51290;45.060;38.948;2023-04-02T15:31:03;17.31;38.61
64833;HTU21D;51290;45.060;38.948;2023-04-02T15:33:36;17.23;38.63
64833;HTU21D;51290;45.060;38.948;2023-04-02T15:36:15;17.14;38.62
64833;HTU21D;51290;45.060;38.948;2023-04-02T15:38:44;17.07;38.50
64833;HTU21D;51290;45.060;38.948;2023-04-02T15:41:24;17.02;38.30
64833;HTU21D;51290;45.060;38.948;2023-04-02T15:44:13;16.99;38.31
64833;HTU21D;51290;45.060;38.948;2023-04-02T15:46:53;16.93;38.14
64833;HTU21D;51290;45.060;38.948;2023-04-02T15:52:16;16.87;38.01
64833;HTU21D;51290;45.060;38.948;2023-04-02T15:58:00;16.75;38.13
64833;HTU21D;51290;45.060;38.948;2023-04-02T16:10:51;16.45;37.70
64833;HTU21D;51290;45.060;38.948;2023-04-02T16:13:29;16.42;37.55
64833;HTU21D;51290;45.060;38.948;2023-04-02T16:16:16;16.40;37.45
64833;HTU21D;51290;45.060;38.948;2023-04-02T16:19:16;16.35;37.33
64833;HTU21D;51290;45.060;38.948;2023-04-02T16:21:54;16.31;37.00
64833;HTU21D;51290;45.060;38.948;2023-04-02T16:24:21;16.27;36.93
64833;HTU21D;51290;45.060;38.948;2023-04-02T16:26:51;16.24;36.87
64833;HTU21D;51290;45.060;38.948;2023-04-02T16:29:28;16.18;36.66
64833;HTU21D;51290;45.060;38.948;2023-04-02T16:32:41;16.13;36.63
64833;HTU21D;51290;45.060;38.948;2023-04-02T16:50:00;15.78;36.59
64833;HTU21D;51290;45.060;38.948;2023-04-02T16:53:09;15.73;36.82
64833;HTU21D;51290;45.060;38.948;2023-04-02T17:07:17;15.51;36.30
64833;HTU21D;51290;45.060;38.948;2023-04-02T17:09:56;15.48;36.37
64833;HTU21D;51290;45.060;38.948;2023-04-02T17:12:46;15.44;36.04
64833;HTU21D;51290;45.060;38.948;2023-04-02T17:15:23;15.41;35.24
64833;HTU21D;51290;45.060;38.948;2023-04-02T17:17:59;15.37;35.46
64833;HTU21D;51290;45.060;38.948;2023-04-02T17:20:26;15.32;35.47
64833;HTU21D;51290;45.060;38.948;2023-04-02T17:22:54;15.25;35.36
64833;HTU21D;51290;45.060;38.948;2023-04-02T17:25:25;15.19;35.42
64833;HTU21D;51290;45.060;38.948;2023-04-02T17:27:54;15.14;35.47
64833;HTU21D;51290;45.060;38.948;2023-04-02T17:30:43;15.09;35.73
64833;HTU21D;51290;45.060;38.948;2023-04-02T17:33:14;15.06;35.61
64833;HTU21D;51290;45.060;38.948;2023-04-02T17:36:03;14.98;35.86
64833;HTU21D;51290;45.060;38.948;2023-04-02T17:38:57;14.93;35.84
64833;HTU21D;51290;45.060;38.948;2023-04-02T17:53:27;14.45;35.31
64833;HTU21D;51290;45.060;38.948;2023-04-02T17:56:09;14.41;35.23
64833;HTU21D;51290;45.060;38.948;2023-04-02T18:04:59;14.35;35.27
64833;HTU21D;51290;45.060;38.948;2023-04-02T18:10:34;14.36;35.39
64833;HTU21D;51290;45.060;38.948;2023-04-02T18:13:07;14.38;35.40
64833;HTU21D;51290;45.060;38.948;2023-04-02T18:21:19;14.29;35.56
64833;HTU21D;51290;45.060;38.948;2023-04-02T18:23:53;14.26;35.31
64833;HTU21D;51290;45.060;38.948;2023-04-02T18:35:46;14.12;35.18
64833;HTU21D;51290;45.060;38.948;2023-04-02T18:41:01;14.04;35.37
64833;HTU21D;51290;45.060;38.948;2023-04-02T18:51:51;13.89;35.66
64833;HTU21D;51290;45.060;38.948;2023-04-02T18:56:48;13.84;35.76
64833;HTU21D;51290;45.060;38.948;2023-04-02T18:59:40;13.82;35.73
64833;HTU21D;51290;45.060;38.948;2023-04-02T19:02:48;13.78;35.82
64833;HTU21D;51290;45.060;38.948;2023-04-02T19:08:03;13.66;35.92
64833;HTU21D;51290;45.060;38.948;2023-04-02T19:10:36;13.60;36.02
64833;HTU21D;51290;45.060;38.948;2023-04-02T19:13:17;13.53;35.98
64833;HTU21D;51290;45.060;38.948;2023-04-02T19:35:54;13.08;36.56
64833;HTU21D;51290;45.060;38.948;2023-04-02T19:38:44;13.02;36.69
64833;HTU21D;51290;45.060;38.948;2023-04-02T19:43:38;12.89;36.88
64833;HTU21D;51290;45.060;38.948;2023-04-02T19:46:04;12.84;36.97
64833;HTU21D;51290;45.060;38.948;2023-04-02T19:51:15;12.73;37.17
64833;HTU21D;51290;45.060;38.948;2023-04-02T19:53:41;12.69;37.27
64833;HTU21D;51290;45.060;38.948;2023-04-02T19:56:07;12.64;37.37
64833;HTU21D;51290;45.060;38.948;2023-04-02T19:58:34;12.61;37.46
64833;HTU21D;51290;45.060;38.948;2023-04-02T20:01:01;12.58;37.55
64833;HTU21D;51290;45.060;38.948;2023-04-02T20:03:27;12.56;37.63
64833;HTU21D;51290;45.060;38.948;2023-04-02T20:05:55;12.55;37.75
64833;HTU21D;51290;45.060;38.948;2023-04-02T20:08:23;12.50;37.85
64833;HTU21D;51290;45.060;38.948;2023-04-02T20:10:49;12.48;37.95
64833;HTU21D;51290;45.060;38.948;2023-04-02T20:13:15;12.49;38.04
64833;HTU21D;51290;45.060;38.948;2023-04-02T20:15:41;12.50;38.14
64833;HTU21D;51290;45.060;38.948;2023-04-02T20:18:07;12.49;38.21
64833;HTU21D;51290;45.060;38.948;2023-04-02T20:20:35;12.49;38.29
64833;HTU21D;51290;45.060;38.948;2023-04-02T20:23:01;12.50;38.39
64833;HTU21D;51290;45.060;38.948;2023-04-02T20:25:27;12.49;38.48
64833;HTU21D;51290;45.060;38.948;2023-04-02T20:27:53;12.48;38.55
64833;HTU21D;51290;45.060;38.948;2023-04-02T20:30:19;12.46;38.68
64833;HTU21D;51290;45.060;38.948;2023-04-02T20:32:45;12.46;38.75
64833;HTU21D;51290;45.060;38.948;2023-04-02T20:35:11;12.45;38.85
64833;HTU21D;51290;45.060;38.948;2023-04-02T20:37:37;12.43;38.95
64833;HTU21D;51290;45.060;38.948;2023-04-02T20:40:07;12.41;39.06
64833;HTU21D;51290;45.060;38.948;2023-04-02T20:42:33;12.41;39.19
64833;HTU21D;51290;45.060;38.948;2023-04-02T20:44:59;12.40;39.28
64833;HTU21D;51290;45.060;38.948;2023-04-02T20:47:25;12.38;39.37
64833;HTU21D;51290;45.060;38.948;2023-04-02T20:49:51;12.36;39.46
64833;HTU21D;51290;45.060;38.948;2023-04-02T20:52:17;12.34;39.57
64833;HTU21D;51290;45.060;38.948;2023-04-02T20:54:43;12.33;39.68
64833;HTU21D;51290;45.060;38.948;2023-04-02T20:57:09;12.31;39.78
64833;HTU21D;51290;45.060;38.948;2023-04-02T20:59:35;12.30;39.88
64833;HTU21D;51290;45.060;38.948;2023-04-02T21:02:01;12.28;40.00
64833;HTU21D;51290;45.060;38.948;2023-04-02T21:04:27;12.25;40.11
64833;HTU21D;51290;45.060;38.948;2023-04-02T21:06:53;12.23;40.21
64833;HTU21D;51290;45.060;38.948;2023-04-02T21:09:22;12.21;40.30
64833;HTU21D;51290;45.060;38.948;2023-04-02T21:11:48;12.18;40.41
64833;HTU21D;51290;45.060;38.948;2023-04-02T21:14:15;12.14;40.50
64833;HTU21D;51290;45.060;38.948;2023-04-02T21:16:41;12.12;40.62
64833;HTU21D;51290;45.060;38.948;2023-04-02T21:19:08;12.06;40.70
64833;HTU21D;51290;45.060;38.948;2023-04-02T21:21:35;12.03;40.86
64833;HTU21D;51290;45.060;38.948;2023-04-02T21:24:04;12.00;40.97
64833;HTU21D;51290;45.060;38.948;2023-04-02T21:26:33;11.97;41.07
64833;HTU21D;51290;45.060;38.948;2023-04-02T21:28:59;11.93;41.18